ULLIULPB

Guest
Details From ULLI - Saint Petersburg Pulkovo
To ULPB - BESOVETS
Flight Number -
Tags generated
Created
Modified
Stats Distance 170 nm / 315 km
Max Altitude 13,900 ft / 4,237 m
Waypoints 3
Social Downloads 1
Likes 0
Share VATSIM

Download

Looking for another format? Having issues loading an existing format? Contact us
Advertisement - Login to hide

Notes

Basic altitude profile: - Ascent Rate: 2500ft/min - Ascent Speed: 250kts - Cruise Altitude: 32000ft - Cruise Speed: 420kts - Descent Rate: 1500ft/min - Descent Speed: 250kts Options: - Use NATs: yes - Use PACOTS: yes - Use low airways: yes - Use high airways: yes

Route

ULLI VIDLA ULPB

ID Type Via Altitude Latitude Longitude Leg Dist Tot Dist Heading (true) Name
O ULLI APT - 0 ft / 0 m 59.80029˚ 30.26250˚ - 0 nm - Saint Petersburg Pulkovo
VIDLA FIX - 13,900 ft / 4,237 m 61.20000˚ 32.39750˚ 105 nm 105 nm 36° / 38° -
O ULPB APT - 0 ft / 0 m 61.88516˚ 34.15474˚ 64 nm 170 nm 50° / 51° BESOVETS

Altitude Profile

Advertisement - Login to hide

Weather


0- 5 10 15 20 25 30 35+ Temperature / ° C

Clouds and Precipitation
Forecast for 2018-05-22 12:00 UTC. Updated 2 hours ago

Ground ~20,000 ft ~40,000 ft Winds

ULLI

Details ICAO ULLI (LED)
Name Saint Petersburg Pulkovo
Region Russia
Timezone Europe/Moscow (UTC+3.0)
Stats Elevation 78 ft / 24 m (AMSL)
Location 59.800292° 30.262504°
Runways 2
Magnetic Variation 10.761° E

METAR

ULLI 221230Z 17005MPS 130V200 CAVOK 24/04 Q1021 R88/090060 NOSIG

Decode

TAF

TAF TAF ULLI 221059Z 2212/2312 14003MPS 9999 SCT020 TEMPO 2212/2218 18005G10MPS TEMPO 2218/2303 20003MPS 4000 -SHRA BKN011 BKN020CB BECMG 2303/2305 24003MPS TEMPO 2303/2306 3100 -SHRA BR BKN011 BKN020CB TEMPO 2306/2312 28003G08MPS

Decode

Departure Runways

ID Width Length Bearing (true) Bearing (mag) Surface Threshold Offset Overrun Length
10L 197 ft / 60 m 11,115 ft / 3,388 m 106.38° 95.62° Concrete 0 ft / 0 m 235 ft / 72 m
10R 197 ft / 60 m 12,365 ft / 3,769 m 106.40° 95.64° Concrete 0 ft / 0 m 220 ft / 67 m
28L 197 ft / 60 m 12,365 ft / 3,769 m 286.46° 275.70° Concrete 0 ft / 0 m 260 ft / 79 m
28R 197 ft / 60 m 11,115 ft / 3,388 m 286.44° 275.68° Concrete 0 ft / 0 m 240 ft / 73 m

ULPB

Details ICAO ULPB (PES)
Name BESOVETS
Region Russia
Timezone Europe/Moscow (UTC+3.0)
Stats Elevation 151 ft / 46 m (AMSL)
Location 61.885161° 34.154744°
Runways 1
Magnetic Variation 13.069° E

METAR

ULPB 221230Z 22005MPS 180V250 CAVOK 26/M00 Q1022 R19/09//70 NOSIG RMK QFE763/1017

Decode

TAF

Not found

Destination Runways

ID Width Length Bearing (true) Bearing (mag) Surface Threshold Offset Overrun Length
02 157 ft / 48 m 8,192 ft / 2,497 m 23.19° 10.12° Concrete 0 ft / 0 m 0 ft / 0 m
20 157 ft / 48 m 8,192 ft / 2,497 m 203.21° 190.14° Concrete 0 ft / 0 m 0 ft / 0 m

Popular Alternatives